Time;durP1;ratioP1;P1;durP2;ratioP2;P2;SDS_P1;SDS_P2;PMS_P1;PMS_P2;Temp;Humidity;BMP_temperature;BMP_pressure;BME280_temperature;BME280_humidity;BME280_pressure;Samples;Min_cycle;Max_cycle;Signal;HPM_P1;HPM_P2
2021/03/13 00:00:16;;;;;;;166.95;63.42;;;-2.60;99.90;;;;;;5001924;28;20068;-77
2021/03/13 00:02:43;;;;;;;110.53;44.65;;;-2.60;99.90;;;;;;5011216;28;20398;-77
2021/03/13 00:05:11;;;;;;;118.10;47.60;;;-2.60;99.90;;;;;;5011832;28;20041;-77
2021/03/13 00:07:37;;;;;;;103.60;42.30;;;-2.60;99.90;;;;;;5011170;28;20029;-77
2021/03/13 00:10:03;;;;;;;95.95;40.00;;;-2.60;99.90;;;;;;5012382;28;20030;-77
2021/03/13 00:12:29;;;;;;;93.30;39.65;;;-2.60;99.90;;;;;;5011310;28;20018;-77
2021/03/13 00:14:54;;;;;;;86.15;38.22;;;-2.60;99.90;;;;;;5011047;28;20506;-77
2021/03/13 00:17:20;;;;;;;86.70;36.90;;;-2.60;99.90;;;;;;5012658;28;20498;-78
2021/03/13 00:19:46;;;;;;;104.00;37.25;;;-2.60;99.90;;;;;;5015765;28;20475;-77
2021/03/13 00:22:11;;;;;;;98.90;41.25;;;-2.60;99.90;;;;;;5014646;28;20029;-78
2021/03/13 00:24:37;;;;;;;96.95;39.85;;;-2.60;99.90;;;;;;5014145;28;20376;-77
2021/03/13 00:27:03;;;;;;;100.03;41.53;;;-2.60;99.90;;;;;;5014962;28;20509;-77
2021/03/13 00:29:29;;;;;;;90.78;38.40;;;-2.60;99.90;;;;;;5014448;28;20386;-77
2021/03/13 00:31:55;;;;;;;88.75;37.35;;;-2.60;99.90;;;;;;5015271;28;20033;-76
2021/03/13 00:34:21;;;;;;;131.10;50.05;;;-2.70;99.90;;;;;;5014697;28;20022;-76
2021/03/13 00:36:50;;;;;;;137.00;55.70;;;-2.70;99.90;;;;;;5014340;28;20061;-76
2021/03/13 00:39:17;;;;;;;124.10;50.35;;;-2.80;99.90;;;;;;5015557;28;20041;-77
2021/03/13 00:41:43;;;;;;;91.45;38.33;;;-2.80;99.90;;;;;;5015533;28;20072;-77
2021/03/13 00:44:09;;;;;;;103.82;41.70;;;-2.90;99.90;;;;;;5014171;28;20450;-77
2021/03/13 00:46:36;;;;;;;93.22;43.08;;;-3.00;99.90;;;;;;5014002;28;20414;-78
2021/03/13 00:49:03;;;;;;;96.50;38.63;;;-3.10;99.90;;;;;;5014014;28;20450;-77
2021/03/13 00:51:29;;;;;;;73.28;36.22;;;-3.10;99.90;;;;;;5014318;28;20057;-77
2021/03/13 00:53:54;;;;;;;88.00;38.00;;;-3.20;99.90;;;;;;5014224;28;20053;-77
2021/03/13 00:56:20;;;;;;;107.25;43.53;;;-3.20;99.90;;;;;;5013988;28;20065;-78
2021/03/13 00:58:45;;;;;;;105.35;45.10;;;-3.20;99.90;;;;;;5013191;28;20037;-77
2021/03/13 01:01:11;;;;;;;119.78;50.70;;;-3.20;99.90;;;;;;5013842;28;20073;-77
2021/03/13 01:03:37;;;;;;;112.50;44.78;;;-3.20;99.90;;;;;;5013507;28;20036;-76
2021/03/13 01:06:03;;;;;;;110.85;51.30;;;-3.20;99.90;;;;;;5013162;28;20076;-77
2021/03/13 01:08:29;;;;;;;97.88;41.38;;;-3.20;99.90;;;;;;5014036;28;20021;-76
2021/03/13 01:10:55;;;;;;;113.10;44.72;;;-3.20;99.90;;;;;;5013127;28;20407;-76
2021/03/13 01:13:21;;;;;;;97.40;38.55;;;-3.20;99.90;;;;;;5015122;28;20121;-76
2021/03/13 01:15:47;;;;;;;103.88;40.20;;;-3.10;99.90;;;;;;5014897;28;20029;-77
2021/03/13 01:18:13;;;;;;;82.70;34.80;;;-3.10;99.90;;;;;;5013647;28;20022;-76
2021/03/13 01:20:40;;;;;;;96.75;44.45;;;-3.10;99.90;;;;;;5012783;28;20515;-76
2021/03/13 01:23:06;;;;;;;107.13;44.33;;;-3.20;99.90;;;;;;5013273;28;20030;-77
2021/03/13 01:25:32;;;;;;;109.22;42.17;;;-3.20;99.90;;;;;;5013395;28;20045;-76
2021/03/13 01:27:57;;;;;;;118.25;48.03;;;-3.30;99.90;;;;;;5013393;28;20040;-77
2021/03/13 01:30:24;;;;;;;107.45;46.42;;;-3.30;99.90;;;;;;5013996;28;20030;-76
2021/03/13 01:32:51;;;;;;;104.68;46.53;;;-3.30;99.90;;;;;;5013286;28;20108;-76
2021/03/13 01:35:17;;;;;;;95.95;41.95;;;-3.20;99.90;;;;;;5012759;28;20391;-76
2021/03/13 01:37:43;;;;;;;89.82;39.08;;;-3.30;99.90;;;;;;5014519;28;20360;-77
2021/03/13 01:40:11;;;;;;;82.43;34.50;;;-3.30;99.90;;;;;;5014391;28;20022;-77
2021/03/13 01:42:39;;;;;;;73.20;32.42;;;-3.20;99.90;;;;;;5013211;28;20022;-76
2021/03/13 01:45:07;;;;;;;69.78;34.13;;;-3.20;99.90;;;;;;5012540;28;20044;-77
2021/03/13 01:47:33;;;;;;;76.72;36.85;;;-3.20;99.90;;;;;;5010437;28;20145;-77
2021/03/13 01:50:00;;;;;;;100.88;42.72;;;-3.10;99.90;;;;;;5012481;28;20041;-77
2021/03/13 01:52:25;;;;;;;93.72;44.65;;;-3.20;99.90;;;;;;5012968;28;20514;-76
2021/03/13 01:54:51;;;;;;;101.97;42.20;;;-3.20;99.90;;;;;;5012853;28;20105;-77
2021/03/13 01:57:18;;;;;;;93.65;42.95;;;-3.30;99.90;;;;;;5012882;28;20064;-77
2021/03/13 01:59:44;;;;;;;94.82;41.50;;;-3.40;99.90;;;;;;5014007;28;20026;-77
2021/03/13 02:02:12;;;;;;;95.90;39.95;;;-3.40;99.90;;;;;;5014113;28;20029;-77
2021/03/13 02:04:38;;;;;;;100.07;43.00;;;-3.40;99.90;;;;;;5012394;28;20084;-77
2021/03/13 02:07:42;;;;;;;83.28;37.75;;;-3.40;99.90;;;;;;5012651;28;20502;-77
2021/03/13 02:10:11;;;;;;;92.40;39.88;;;-3.30;99.90;;;;;;4972277;28;20097;-77
2021/03/13 02:12:46;;;;;;;90.97;37.40;;;-3.20;99.90;;;;;;4956574;28;20523;-77
2021/03/13 02:15:19;;;;;;;83.72;35.47;;;-3.20;99.90;;;;;;4986036;28;20435;-76
2021/03/13 02:17:56;;;;;;;79.93;37.00;;;-3.10;99.90;;;;;;5013053;28;20468;-76
2021/03/13 02:20:29;;;;;;;82.18;33.72;;;-3.10;99.90;;;;;;5013834;28;20045;-76
2021/03/13 02:22:59;;;;;;;82.18;36.05;;;-3.10;99.90;;;;;;5013104;28;20489;-77
2021/03/13 02:25:33;;;;;;;84.63;37.88;;;-3.20;99.90;;;;;;5011923;28;20029;-76
2021/03/13 02:28:09;;;;;;;92.93;39.90;;;-3.20;99.90;;;;;;5010992;28;20046;-76
2021/03/13 02:30:35;;;;;;;89.97;38.90;;;-3.30;99.90;;;;;;5012397;28;20072;-76
2021/03/13 02:33:31;;;;;;;84.82;39.70;;;-3.40;99.90;;;;;;5013416;28;20022;-77
2021/03/13 02:36:00;;;;;;;87.82;39.08;;;-3.40;99.90;;;;;;5013462;28;20036;-76
2021/03/13 02:38:34;;;;;;;94.55;40.70;;;-3.40;99.90;;;;;;5012991;28;20018;-76
2021/03/13 02:41:05;;;;;;;83.88;38.15;;;-3.40;99.90;;;;;;5013021;28;20104;-77
2021/03/13 02:43:34;;;;;;;86.63;39.78;;;-3.40;99.90;;;;;;5012298;28;20092;-76
2021/03/13 02:46:01;;;;;;;74.50;36.33;;;-3.40;99.90;;;;;;5013269;28;20040;-76
2021/03/13 02:48:29;;;;;;;78.70;35.00;;;-3.30;99.90;;;;;;5011858;28;20030;-76
2021/03/13 02:50:57;;;;;;;68.93;31.13;;;-3.30;99.90;;;;;;5013098;28;20399;-76
2021/03/13 02:53:25;;;;;;;69.00;31.50;;;-3.30;99.90;;;;;;4992026;28;20061;-76
2021/03/13 02:55:52;;;;;;;87.25;39.42;;;-3.30;99.90;;;;;;4995738;28;20030;-76
2021/03/13 02:58:19;;;;;;;99.22;39.97;;;-3.30;99.90;;;;;;5013326;28;20041;-76
2021/03/13 03:00:46;;;;;;;95.30;42.10;;;-3.30;99.90;;;;;;5013138;28;20018;-77
2021/03/13 03:03:12;;;;;;;79.50;36.95;;;-3.30;99.90;;;;;;5011690;28;20021;-77
2021/03/13 03:05:38;;;;;;;92.50;38.20;;;-3.30;99.90;;;;;;5011816;28;20518;-76
2021/03/13 03:08:06;;;;;;;102.93;43.95;;;-3.30;99.90;;;;;;5010399;28;20475;-77
2021/03/13 03:10:35;;;;;;;89.18;40.17;;;-3.30;99.90;;;;;;5011803;28;20026;-77
2021/03/13 03:13:03;;;;;;;97.57;39.55;;;-3.30;99.90;;;;;;5011801;28;20114;-77
2021/03/13 03:15:31;;;;;;;91.97;40.95;;;-3.30;99.90;;;;;;5011697;28;20022;-77
2021/03/13 03:18:00;;;;;;;100.65;42.75;;;-3.30;99.90;;;;;;5011735;28;20026;-77
2021/03/13 03:20:27;;;;;;;95.95;41.30;;;-3.30;99.90;;;;;;5011568;28;20434;-77
2021/03/13 03:22:54;;;;;;;107.95;46.22;;;-3.40;99.90;;;;;;5011053;28;20105;-77
2021/03/13 03:25:20;;;;;;;94.80;41.20;;;-3.40;99.90;;;;;;5011228;28;20042;-77
2021/03/13 03:27:52;;;;;;;94.53;44.22;;;-3.40;99.90;;;;;;5012982;28;20101;-77
2021/03/13 03:30:19;;;;;;;100.20;42.58;;;-3.50;99.90;;;;;;5012997;28;20026;-77
2021/03/13 03:32:46;;;;;;;131.68;57.53;;;-3.40;99.90;;;;;;5011600;28;20121;-77
2021/03/13 03:35:13;;;;;;;101.95;44.67;;;-3.40;99.90;;;;;;5012847;28;20056;-77
2021/03/13 03:37:38;;;;;;;90.88;39.53;;;-3.50;99.90;;;;;;5011589;28;20014;-76
2021/03/13 03:40:06;;;;;;;174.40;73.30;;;-3.50;99.90;;;;;;5012756;28;20506;-76
2021/03/13 03:42:33;;;;;;;328.67;125.03;;;-3.50;99.90;;;;;;5012416;28;20377;-77
2021/03/13 03:45:01;;;;;;;363.60;140.30;;;-3.40;99.90;;;;;;5011333;28;20046;-77
2021/03/13 03:47:30;;;;;;;199.27;78.63;;;-3.40;99.90;;;;;;5011460;28;20025;-76
2021/03/13 03:49:56;;;;;;;130.10;55.10;;;-3.40;99.90;;;;;;5011368;28;20037;-75
2021/03/13 03:52:23;;;;;;;108.32;44.88;;;-3.40;99.90;;;;;;5012875;28;20030;-76
2021/03/13 03:54:49;;;;;;;100.07;38.95;;;-3.40;99.90;;;;;;5014861;28;20482;-76
2021/03/13 03:57:17;;;;;;;74.10;34.08;;;-3.30;99.90;;;;;;5016396;28;20029;-76
2021/03/13 03:59:44;;;;;;;69.38;31.65;;;-3.30;99.90;;;;;;5014992;28;20022;-76
2021/03/13 04:02:10;;;;;;;74.53;33.67;;;-3.30;99.90;;;;;;5015092;28;20479;-77
2021/03/13 04:04:38;;;;;;;54.53;28.45;;;-3.20;99.90;;;;;;5016430;28;20498;-76
2021/03/13 04:07:04;;;;;;;69.25;28.73;;;-3.20;99.90;;;;;;5015089;28;20434;-77
2021/03/13 04:09:31;;;;;;;71.85;31.55;;;-3.10;99.90;;;;;;5014719;28;20030;-77
2021/03/13 04:11:57;;;;;;;111.22;47.95;;;-3.10;99.90;;;;;;5016105;28;20018;-77
2021/03/13 04:14:25;;;;;;;109.93;46.38;;;-3.20;99.90;;;;;;5015909;28;20449;-77
2021/03/13 04:16:51;;;;;;;126.13;54.65;;;-3.20;99.90;;;;;;5016105;28;20026;-77
2021/03/13 04:19:17;;;;;;;152.95;64.30;;;-3.30;99.90;;;;;;5015970;28;20499;-76
2021/03/13 04:21:43;;;;;;;182.70;69.63;;;-3.30;99.90;;;;;;5014767;28;20548;-77
2021/03/13 04:24:12;;;;;;;161.13;68.35;;;-3.30;99.90;;;;;;5015504;28;20594;-76
2021/03/13 04:26:40;;;;;;;210.45;87.65;;;-3.40;99.90;;;;;;5015983;28;20018;-76
2021/03/13 04:29:06;;;;;;;242.20;91.25;;;-3.30;99.90;;;;;;5015682;28;20109;-76
2021/03/13 04:31:32;;;;;;;222.55;80.80;;;-3.30;99.90;;;;;;5014573;28;20574;-77
2021/03/13 04:33:59;;;;;;;255.50;94.70;;;-3.30;99.90;;;;;;5014399;28;20022;-77
2021/03/13 04:36:28;;;;;;;241.15;90.53;;;-3.40;99.90;;;;;;5015704;28;20029;-76
2021/03/13 04:38:55;;;;;;;203.00;78.80;;;-3.30;99.90;;;;;;5014034;28;20053;-76
2021/03/13 04:41:22;;;;;;;198.25;79.45;;;-3.30;99.90;;;;;;5013799;28;20096;-76
2021/03/13 04:43:48;;;;;;;201.10;78.75;;;-3.30;99.90;;;;;;5014152;28;20026;-77
2021/03/13 04:46:14;;;;;;;194.68;77.57;;;-3.30;99.90;;;;;;5014318;28;20120;-77
2021/03/13 04:48:40;;;;;;;200.23;77.55;;;-3.30;99.90;;;;;;5014793;28;20116;-77
2021/03/13 04:51:06;;;;;;;181.70;72.50;;;-3.30;99.90;;;;;;5015328;28;20394;-76
2021/03/13 04:53:33;;;;;;;184.27;70.50;;;-3.30;99.90;;;;;;5013533;28;20034;-77
2021/03/13 04:55:58;;;;;;;187.95;70.00;;;-3.30;99.90;;;;;;5013957;28;20030;-77
2021/03/13 04:58:24;;;;;;;158.93;66.95;;;-3.30;99.90;;;;;;5015233;28;20052;-77
2021/03/13 05:00:52;;;;;;;135.57;58.17;;;-3.30;99.90;;;;;;5014638;28;20030;-76
2021/03/13 05:03:17;;;;;;;111.10;48.28;;;-3.30;99.90;;;;;;5014570;28;20112;-77
2021/03/13 05:05:43;;;;;;;97.03;38.45;;;-3.30;99.90;;;;;;5013727;28;20120;-77
2021/03/13 05:08:09;;;;;;;98.85;42.53;;;-3.20;99.90;;;;;;5015073;28;20041;-77
2021/03/13 05:10:34;;;;;;;92.95;38.75;;;-3.20;99.90;;;;;;5013735;28;20040;-77
2021/03/13 05:13:00;;;;;;;75.15;34.97;;;-3.20;99.90;;;;;;5013660;28;20018;-77
2021/03/13 05:15:26;;;;;;;99.97;42.00;;;-3.20;99.90;;;;;;5010828;28;20037;-76
2021/03/13 05:17:52;;;;;;;116.43;50.92;;;-3.20;99.90;;;;;;5013578;28;20029;-77
2021/03/13 05:20:18;;;;;;;117.43;51.83;;;-3.20;99.90;;;;;;5014680;28;20029;-76
2021/03/13 05:22:48;;;;;;;139.98;55.17;;;-3.10;99.90;;;;;;5014550;28;20061;-77
2021/03/13 05:25:15;;;;;;;137.77;55.15;;;-3.10;99.90;;;;;;5013315;28;20472;-77
2021/03/13 05:27:41;;;;;;;143.77;53.97;;;-3.10;99.90;;;;;;5013422;28;20108;-77
2021/03/13 05:30:08;;;;;;;157.88;65.05;;;-3.00;99.90;;;;;;5014578;28;20018;-77
2021/03/13 05:32:34;;;;;;;193.40;71.05;;;-2.90;99.90;;;;;;5013366;28;20037;-77
2021/03/13 05:35:01;;;;;;;168.30;67.75;;;-2.90;99.90;;;;;;5013259;28;20040;-77
2021/03/13 05:37:27;;;;;;;135.93;60.00;;;-2.80;99.90;;;;;;5014523;28;20018;-78
2021/03/13 05:39:52;;;;;;;118.95;48.10;;;-2.70;99.90;;;;;;5009466;28;20029;-77
2021/03/13 05:42:19;;;;;;;101.38;41.83;;;-2.70;99.90;;;;;;5010303;28;20025;-76
2021/03/13 05:44:45;;;;;;;121.13;51.83;;;-2.60;99.90;;;;;;5012654;28;20081;-77
2021/03/13 05:47:11;;;;;;;100.07;42.58;;;-2.50;99.90;;;;;;5014341;28;20030;-77
2021/03/13 05:49:38;;;;;;;145.15;62.22;;;-2.40;99.90;;;;;;5014312;28;20092;-77
2021/03/13 05:52:07;;;;;;;154.80;60.70;;;-2.40;99.90;;;;;;5013967;28;20022;-77
2021/03/13 05:54:33;;;;;;;162.93;66.40;;;-2.30;99.90;;;;;;5014317;28;20087;-76
2021/03/13 05:57:01;;;;;;;147.88;62.17;;;-2.30;99.90;;;;;;5012704;28;20033;-77
2021/03/13 05:59:27;;;;;;;138.52;58.75;;;-2.20;99.90;;;;;;5012779;28;20368;-76
2021/03/13 06:01:53;;;;;;;105.80;44.75;;;-2.10;99.90;;;;;;5014044;28;20033;-77
2021/03/13 06:04:19;;;;;;;79.47;34.13;;;-2.00;99.90;;;;;;5012613;28;20041;-78
2021/03/13 06:06:48;;;;;;;74.82;29.80;;;-1.80;99.90;;;;;;5013997;28;20030;-77
2021/03/13 06:09:13;;;;;;;60.78;32.05;;;-1.70;99.90;;;;;;5012216;28;20030;-76
2021/03/13 06:11:39;;;;;;;81.90;34.55;;;-1.60;99.90;;;;;;5004748;28;20030;-77
2021/03/13 06:14:04;;;;;;;88.18;36.50;;;-1.50;99.90;;;;;;5019832;28;20034;-77
2021/03/13 06:16:34;;;;;;;79.53;32.35;;;-1.50;99.90;;;;;;5003809;28;20016;-79
2021/03/13 06:18:59;;;;;;;81.43;35.75;;;-1.30;99.90;;;;;;5010968;28;20037;-78
2021/03/13 06:21:35;;;;;;;72.28;31.17;;;-1.30;99.90;;;;;;5012504;28;20025;-78
2021/03/13 06:24:24;;;;;;;68.85;30.10;;;-1.20;99.90;;;;;;5011789;28;20022;-77
2021/03/13 06:26:59;;;;;;;73.38;30.80;;;-1.10;99.90;;;;;;5013714;28;20036;-77
2021/03/13 06:29:26;;;;;;;96.03;37.33;;;-1.00;99.90;;;;;;5011610;28;20101;-77
2021/03/13 06:32:12;;;;;;;141.23;49.67;;;-0.90;99.90;;;;;;5013249;28;20021;-77
2021/03/13 06:34:39;;;;;;;707.92;275.67;;;-0.70;99.90;;;;;;5010215;28;20392;-77
2021/03/13 06:37:28;;;;;;;271.52;96.97;;;-0.50;99.90;;;;;;5010166;28;20022;-77
2021/03/13 06:39:56;;;;;;;182.40;61.55;;;-0.20;99.90;;;;;;5010093;28;20109;-77
2021/03/13 06:42:27;;;;;;;74.47;27.27;;;-0.10;99.90;;;;;;5010145;28;20033;-77
2021/03/13 06:45:04;;;;;;;190.98;69.22;;;0.00;99.90;;;;;;5008874;28;20491;-77
2021/03/13 06:47:40;;;;;;;92.05;34.30;;;0.20;99.90;;;;;;5012691;28;20036;-77
2021/03/13 06:50:15;;;;;;;668.08;272.58;;;0.40;99.90;;;;;;4993449;28;20018;-77
2021/03/13 06:52:50;;;;;;;420.83;153.20;;;0.60;99.90;;;;;;4991925;28;20022;-76
2021/03/13 06:55:24;;;;;;;298.83;108.50;;;0.60;99.90;;;;;;4993531;28;20026;-77
2021/03/13 06:57:51;;;;;;;107.70;38.92;;;0.70;99.90;;;;;;5000962;28;20036;-77
2021/03/13 07:00:28;;;;;;;33.63;15.55;;;0.80;99.90;;;;;;5011103;28;20053;-77
2021/03/13 07:03:10;;;;;;;30.63;10.88;;;0.90;99.90;;;;;;5010335;28;20034;-77
2021/03/13 07:05:41;;;;;;;21.92;11.57;;;1.00;99.90;;;;;;5008654;28;20048;-77
2021/03/13 07:08:30;;;;;;;19.27;9.82;;;1.20;99.90;;;;;;5004895;28;20068;-78
2021/03/13 07:11:10;;;;;;;19.45;10.80;;;1.30;99.90;;;;;;5002256;28;20492;-77
2021/03/13 07:13:44;;;;;;;20.50;10.60;;;1.40;99.90;;;;;;5000457;28;20034;-76
2021/03/13 07:16:38;;;;;;;22.38;10.30;;;1.50;99.90;;;;;;5008584;28;20026;-77
2021/03/13 07:19:10;;;;;;;21.70;11.30;;;1.60;99.90;;;;;;5011723;28;20120;-78
2021/03/13 07:21:38;;;;;;;21.05;10.82;;;1.80;99.90;;;;;;5011815;28;20033;-76
2021/03/13 07:24:08;;;;;;;22.38;10.95;;;1.90;99.90;;;;;;5011604;28;20387;-77
2021/03/13 07:26:45;;;;;;;20.98;10.90;;;2.00;99.90;;;;;;5012218;28;20112;-77
2021/03/13 07:29:13;;;;;;;18.95;10.02;;;2.10;99.90;;;;;;5015624;28;20104;-77
2021/03/13 07:31:40;;;;;;;23.77;12.45;;;2.20;99.90;;;;;;5016300;28;20484;-80
2021/03/13 07:34:37;;;;;;;25.13;12.70;;;2.40;99.90;;;;;;5009572;28;20022;-78
2021/03/13 07:37:04;;;;;;;25.73;12.18;;;2.50;99.90;;;;;;4996872;28;20504;-77
2021/03/13 07:39:38;;;;;;;22.30;10.05;;;2.70;99.90;;;;;;4997141;28;20161;-77
2021/03/13 07:42:13;;;;;;;24.23;11.60;;;2.80;99.90;;;;;;5004779;28;20026;-77
2021/03/13 07:44:40;;;;;;;28.33;12.05;;;2.90;99.90;;;;;;5015383;28;20046;-77
2021/03/13 07:47:07;;;;;;;26.60;10.75;;;3.00;99.90;;;;;;5016544;28;20037;-77
2021/03/13 07:49:34;;;;;;;18.85;9.60;;;3.10;99.90;;;;;;5016259;28;20028;-77
2021/03/13 07:52:00;;;;;;;21.17;10.07;;;3.20;99.90;;;;;;5015270;28;20058;-77
2021/03/13 07:54:31;;;;;;;18.38;9.55;;;3.30;99.90;;;;;;5016505;28;20471;-77
2021/03/13 07:56:59;;;;;;;14.10;7.20;;;3.40;99.90;;;;;;5016399;28;20061;-77
2021/03/13 07:59:46;;;;;;;17.33;9.25;;;3.50;98.50;;;;;;5015121;28;20034;-77
2021/03/13 08:02:30;;;;;;;14.38;6.95;;;3.70;96.40;;;;;;5014538;28;20080;-76
2021/03/13 08:04:56;;;;;;;13.65;6.72;;;4.00;90.90;;;;;;5008999;28;20057;-77
2021/03/13 08:07:23;;;;;;;8.63;5.80;;;4.10;92.00;;;;;;5013984;28;20049;-77
2021/03/13 08:09:49;;;;;;;9.00;5.43;;;4.30;91.50;;;;;;5014180;28;20084;-77
2021/03/13 08:12:41;;;;;;;7.63;5.53;;;4.50;89.20;;;;;;5014911;28;20049;-78
2021/03/13 08:15:36;;;;;;;14.95;5.68;;;4.80;83.70;;;;;;5010708;28;20034;-78
2021/03/13 08:18:02;;;;;;;15.85;5.95;;;5.00;82.10;;;;;;5011893;28;20025;-77
2021/03/13 08:20:36;;;;;;;6.75;4.50;;;5.30;83.70;;;;;;5013736;28;20025;-78
2021/03/13 08:23:11;;;;;;;14.20;7.25;;;5.50;79.00;;;;;;5011986;28;20112;-78
2021/03/13 08:25:56;;;;;;;15.82;7.55;;;5.60;78.10;;;;;;5013924;28;20423;-77
2021/03/13 08:28:47;;;;;;;12.25;5.53;;;5.70;76.60;;;;;;5012556;28;20119;-78
2021/03/13 08:31:24;;;;;;;12.48;5.85;;;5.90;75.10;;;;;;5012830;28;20386;-77
2021/03/13 08:34:09;;;;;;;16.38;7.47;;;6.00;75.90;;;;;;5013320;28;20033;-77
2021/03/13 08:36:45;;;;;;;14.65;6.40;;;6.20;75.80;;;;;;5010363;28;20077;-76
2021/03/13 08:39:17;;;;;;;14.55;6.53;;;6.30;74.00;;;;;;5011112;28;20026;-77
2021/03/13 08:41:43;;;;;;;8.38;4.15;;;6.40;72.20;;;;;;5012633;28;20475;-77
2021/03/13 08:44:27;;;;;;;12.45;4.70;;;6.50;70.30;;;;;;5010770;28;20065;-76
2021/03/13 08:46:56;;;;;;;8.95;3.85;;;6.70;70.60;;;;;;5010338;28;20032;-76
2021/03/13 08:49:25;;;;;;;8.15;3.75;;;6.70;68.50;;;;;;5011795;28;20025;-78
2021/03/13 08:52:08;;;;;;;6.60;3.72;;;6.80;66.70;;;;;;5011586;28;20113;-80
2021/03/13 08:54:40;;;;;;;10.50;4.20;;;6.80;67.00;;;;;;5004125;28;20058;-79
2021/03/13 08:57:11;;;;;;;7.55;4.38;;;6.90;67.30;;;;;;5010785;28;20101;-80
2021/03/13 08:59:38;;;;;;;9.15;4.63;;;7.00;67.00;;;;;;5013466;28;20021;-79
2021/03/13 09:02:11;;;;;;;9.32;4.10;;;7.10;65.20;;;;;;5014911;28;20025;-80
2021/03/13 09:04:38;;;;;;;;;;;7.10;64.30;;;;;;5012643;28;20042;-80
2021/03/13 09:07:05;;;;;;;10.52;3.60;;;7.30;65.70;;;;;;5014375;28;20292;-80
2021/03/13 09:09:32;;;;;;;7.05;3.90;;;7.40;63.30;;;;;;5012319;28;20033;-80
2021/03/13 09:12:03;;;;;;;7.63;4.10;;;7.50;64.30;;;;;;5008552;28;20085;-80
2021/03/13 09:14:29;;;;;;;6.60;4.85;;;7.60;65.30;;;;;;5004099;28;20026;-80
2021/03/13 09:16:55;;;;;;;7.13;3.25;;;7.70;63.60;;;;;;5034852;28;20033;-79
2021/03/13 09:19:23;;;;;;;9.25;5.20;;;7.70;61.70;;;;;;5003189;28;20017;-80
2021/03/13 09:21:54;;;;;;;6.68;4.30;;;7.80;61.20;;;;;;5004187;28;20026;-79
2021/03/13 09:24:25;;;;;;;10.57;5.55;;;7.90;60.80;;;;;;5010923;28;20034;-80
2021/03/13 09:26:54;;;;;;;13.95;6.38;;;8.00;61.00;;;;;;5012671;28;20116;-80
2021/03/13 09:29:36;;;;;;;9.73;5.60;;;8.10;61.00;;;;;;5014396;28;20022;-80
2021/03/13 09:32:11;;;;;;;6.30;3.42;;;8.00;61.50;;;;;;5013344;28;20029;-79
2021/03/13 09:34:41;;;;;;;10.10;4.40;;;7.80;59.00;;;;;;5014595;28;20041;-80
2021/03/13 09:37:26;;;;;;;8.65;3.65;;;7.80;59.90;;;;;;5013492;28;20471;-79
2021/03/13 09:39:58;;;;;;;8.80;4.10;;;8.00;59.40;;;;;;5011597;28;20439;-79
2021/03/13 09:42:25;;;;;;;10.95;7.20;;;8.10;58.90;;;;;;5011877;28;20106;-79
2021/03/13 09:44:59;;;;;;;11.90;4.30;;;8.20;59.30;;;;;;5004182;28;20391;-79
2021/03/13 09:47:34;;;;;;;12.32;4.70;;;8.20;59.40;;;;;;5010813;28;20414;-80
2021/03/13 09:50:20;;;;;;;6.93;3.80;;;8.30;59.50;;;;;;5009700;28;20418;-80
2021/03/13 09:52:50;;;;;;;11.25;4.25;;;8.40;58.70;;;;;;5012063;28;20103;-79
2021/03/13 09:55:18;;;;;;;5.00;2.83;;;8.40;58.60;;;;;;5009343;28;20105;-79
2021/03/13 09:57:52;;;;;;;22.80;7.57;;;8.50;59.50;;;;;;5011357;28;20495;-79
2021/03/13 10:00:21;;;;;;;11.82;6.32;;;8.30;57.80;;;;;;5009646;28;20022;-79
2021/03/13 10:02:48;;;;;;;24.58;6.47;;;8.10;58.10;;;;;;5000411;28;20027;-79
2021/03/13 10:05:15;;;;;;;10.88;4.85;;;8.10;58.00;;;;;;5002278;28;20057;-79
2021/03/13 10:07:42;;;;;;;6.65;3.97;;;8.20;58.50;;;;;;5001668;28;20022;-80
2021/03/13 10:10:09;;;;;;;11.55;5.55;;;8.20;56.90;;;;;;5000880;28;20034;-80
2021/03/13 10:12:41;;;;;;;12.27;8.20;;;8.10;57.10;;;;;;5000776;28;20038;-80
2021/03/13 10:15:14;;;;;;;17.65;6.20;;;8.20;58.60;;;;;;5000256;28;20026;-80
2021/03/13 10:17:59;;;;;;;10.35;4.45;;;8.20;59.10;;;;;;5009383;28;20126;-80
2021/03/13 10:20:35;;;;;;;9.05;3.08;;;8.20;58.30;;;;;;5010103;28;20068;-80
2021/03/13 10:23:12;;;;;;;12.05;6.95;;;8.10;57.70;;;;;;5009094;28;20022;-79
2021/03/13 10:25:40;;;;;;;14.25;8.38;;;8.20;58.20;;;;;;5009931;28;20073;-79
2021/03/13 10:28:07;;;;;;;9.13;4.82;;;8.30;58.00;;;;;;5011606;28;20029;-80
2021/03/13 10:30:34;;;;;;;14.48;7.47;;;8.60;59.10;;;;;;5012764;28;20033;-79
2021/03/13 10:32:59;;;;;;;11.73;4.93;;;8.80;57.80;;;;;;5012269;28;20032;-79
2021/03/13 10:35:30;;;;;;;6.80;4.10;;;8.80;57.60;;;;;;5012150;28;20117;-79
2021/03/13 10:38:02;;;;;;;9.43;5.18;;;8.60;57.60;;;;;;5011952;28;20040;-79
2021/03/13 10:40:28;;;;;;;11.55;4.97;;;8.50;57.40;;;;;;5012152;28;20025;-79
2021/03/13 10:43:13;;;;;;;14.93;6.40;;;8.50;58.10;;;;;;5012163;28;20029;-79
2021/03/13 10:45:39;;;;;;;13.48;8.38;;;8.40;58.30;;;;;;5012038;28;20029;-79
2021/03/13 10:48:08;;;;;;;17.48;8.45;;;8.20;58.60;;;;;;5013279;28;20032;-79
2021/03/13 10:50:43;;;;;;;10.02;4.47;;;8.10;59.00;;;;;;5011974;28;20034;-79
2021/03/13 10:53:32;;;;;;;17.15;11.23;;;8.10;59.10;;;;;;5012013;28;20060;-79
2021/03/13 10:56:09;;;;;;;22.85;10.98;;;8.40;59.60;;;;;;5012987;28;20030;-79
2021/03/13 10:58:58;;;;;;;7.95;4.25;;;8.40;59.20;;;;;;5011922;28;20037;-78
2021/03/13 11:01:25;;;;;;;13.48;8.23;;;8.40;58.50;;;;;;5011560;28;20022;-79
2021/03/13 11:03:53;;;;;;;22.10;14.30;;;8.50;58.60;;;;;;5011708;28;20033;-79
2021/03/13 11:06:33;;;;;;;7.82;3.92;;;8.50;57.70;;;;;;5011785;28;20026;-79
2021/03/13 11:09:03;;;;;;;18.92;10.20;;;8.60;57.60;;;;;;5011763;28;20061;-80
2021/03/13 11:11:28;;;;;;;14.20;9.40;;;8.80;58.10;;;;;;5011819;28;20022;-80
2021/03/13 11:13:54;;;;;;;15.82;6.30;;;8.90;57.10;;;;;;5011613;28;20129;-79
2021/03/13 11:16:22;;;;;;;7.40;3.00;;;9.10;57.60;;;;;;5011511;28;20032;-79
2021/03/13 11:18:55;;;;;;;9.85;7.70;;;9.40;56.90;;;;;;5011663;28;20460;-80
2021/03/13 11:21:21;;;;;;;;;;;9.60;56.90;;;;;;5012257;28;20026;-80
2021/03/13 11:23:47;;;;;;;5.53;3.40;;;9.50;54.90;;;;;;5011716;28;19941;-79
2021/03/13 11:26:12;;;;;;;11.15;5.63;;;9.70;55.20;;;;;;5044741;28;20458;-79
2021/03/13 11:28:39;;;;;;;14.32;7.35;;;9.90;55.70;;;;;;5012944;28;20017;-79
2021/03/13 11:31:05;;;;;;;7.68;3.05;;;9.90;54.40;;;;;;5013149;28;20025;-79
2021/03/13 11:33:31;;;;;;;8.50;4.38;;;10.00;55.20;;;;;;5008186;28;20029;-79
2021/03/13 11:35:57;;;;;;;17.25;8.52;;;10.10;55.90;;;;;;5010272;28;20068;-80
2021/03/13 11:38:23;;;;;;;15.48;6.55;;;10.20;55.00;;;;;;5008857;28;20371;-79
2021/03/13 11:40:48;;;;;;;12.95;4.25;;;10.40;55.10;;;;;;5010727;28;20018;-79
2021/03/13 11:43:14;;;;;;;38.22;20.38;;;10.20;53.80;;;;;;5010727;28;20497;-79
2021/03/13 11:45:39;;;;;;;11.88;5.30;;;10.30;53.30;;;;;;5008826;28;20037;-79
2021/03/13 11:48:05;;;;;;;18.20;7.38;;;10.30;53.30;;;;;;5008678;28;20479;-79
2021/03/13 11:50:32;;;;;;;20.98;9.00;;;10.30;53.60;;;;;;4998146;28;20387;-79
2021/03/13 11:52:57;;;;;;;8.13;4.53;;;10.20;52.40;;;;;;5012370;28;20026;-79
2021/03/13 11:55:25;;;;;;;11.23;3.88;;;10.10;52.40;;;;;;5010308;28;20053;-79
2021/03/13 11:57:51;;;;;;;17.58;6.40;;;10.10;53.00;;;;;;5011458;28;20030;-79
2021/03/13 12:00:17;;;;;;;23.58;12.13;;;10.10;53.30;;;;;;5002286;28;20034;-79
2021/03/13 12:02:43;;;;;;;20.58;8.13;;;9.90;52.10;;;;;;5001152;28;20022;-80
2021/03/13 12:05:10;;;;;;;10.02;3.60;;;10.00;53.40;;;;;;5006323;28;20121;-79
2021/03/13 12:07:37;;;;;;;14.70;6.18;;;10.10;52.90;;;;;;5010475;28;20065;-80
2021/03/13 12:10:07;;;;;;;7.40;4.13;;;10.10;52.90;;;;;;5010288;28;20021;-80
2021/03/13 12:12:33;;;;;;;23.45;9.60;;;10.10;53.40;;;;;;5009487;28;20033;-79
2021/03/13 12:14:59;;;;;;;4.13;2.65;;;10.10;53.10;;;;;;5011077;28;20109;-79
2021/03/13 12:17:25;;;;;;;15.27;5.30;;;9.90;53.10;;;;;;5014927;28;20037;-79
2021/03/13 12:19:50;;;;;;;10.10;3.70;;;10.00;53.90;;;;;;5014502;28;20085;-79
2021/03/13 12:22:16;;;;;;;11.13;5.00;;;10.10;53.80;;;;;;5009538;28;20029;-79
2021/03/13 12:24:43;;;;;;;18.15;8.57;;;10.10;53.40;;;;;;5008585;28;20477;-79
2021/03/13 12:27:09;;;;;;;5.80;2.97;;;10.30;53.70;;;;;;5006809;28;20040;-79
2021/03/13 12:29:35;;;;;;;5.53;2.83;;;10.50;53.80;;;;;;5011420;28;20068;-79
2021/03/13 12:32:01;;;;;;;7.03;3.25;;;10.70;53.70;;;;;;5009485;28;20129;-80
2021/03/13 12:34:27;;;;;;;4.88;2.60;;;10.60;52.00;;;;;;5005879;28;20242;-79
2021/03/13 12:36:52;;;;;;;7.82;3.75;;;10.60;52.50;;;;;;5001859;28;20081;-79
2021/03/13 12:39:19;;;;;;;6.57;3.08;;;10.60;52.50;;;;;;5007556;28;20021;-78
2021/03/13 12:41:46;;;;;;;4.13;2.28;;;10.50;52.20;;;;;;5011676;28;20124;-76
2021/03/13 12:44:12;;;;;;;3.47;2.10;;;10.20;52.10;;;;;;5011621;28;20022;-78